Time;durP1;ratioP1;P1;durP2;ratioP2;P2;SDS_P1;SDS_P2;PMS_P1;PMS_P2;Temp;Humidity;BMP_temperature;BMP_pressure;BME280_temperature;BME280_humidity;BME280_pressure;Samples;Min_cycle;Max_cycle;Signal;HPM_P1;HPM_P2
2020/12/01 00:02:15;;;;;;;9.27;6.22;;;2.70;78.40;;;;;;5081520;28;20024;-63
2020/12/01 00:04:43;;;;;;;9.45;6.72;;;2.70;78.40;;;;;;5080642;28;20032;-63
2020/12/01 00:07:08;;;;;;;9.73;6.22;;;2.70;78.10;;;;;;5089647;28;20016;-63
2020/12/01 00:09:34;;;;;;;9.93;6.38;;;2.70;78.50;;;;;;5079297;28;20150;-63
2020/12/01 00:12:00;;;;;;;9.30;6.53;;;2.70;78.30;;;;;;5077727;28;20036;-63
2020/12/01 00:14:26;;;;;;;9.98;6.60;;;2.70;78.60;;;;;;5079713;28;20028;-63
2020/12/01 00:16:51;;;;;;;9.43;6.68;;;2.70;78.60;;;;;;5061081;28;20494;-63
2020/12/01 00:19:17;;;;;;;10.15;7.03;;;2.70;78.50;;;;;;5071611;28;20021;-63
2020/12/01 00:21:46;;;;;;;9.07;6.28;;;2.70;78.60;;;;;;5079752;28;20025;-63
2020/12/01 00:24:12;;;;;;;9.68;6.20;;;2.70;78.50;;;;;;5079206;28;20028;-63
2020/12/01 00:26:37;;;;;;;8.30;5.95;;;2.60;78.70;;;;;;5076404;28;20044;-63
2020/12/01 00:29:04;;;;;;;8.15;5.85;;;2.60;78.50;;;;;;5079689;28;20029;-63
2020/12/01 00:31:30;;;;;;;8.20;6.18;;;2.60;78.50;;;;;;5082996;28;20572;-63
2020/12/01 00:33:55;;;;;;;8.00;5.68;;;2.60;78.80;;;;;;5088657;28;20024;-63
2020/12/01 00:36:27;;;;;;;9.50;6.53;;;2.60;78.80;;;;;;5082058;28;20016;-63
2020/12/01 00:38:53;;;;;;;;;;;2.70;78.90;;;;;;5079248;28;20476;-63
2020/12/01 00:41:19;;;;;;;8.60;6.18;;;2.60;78.90;;;;;;5089137;28;19911;-63
2020/12/01 00:43:44;;;;;;;9.27;6.10;;;2.60;78.90;;;;;;5078531;28;20035;-63
2020/12/01 00:46:10;;;;;;;8.40;5.57;;;2.60;78.80;;;;;;5085254;28;20048;-63
2020/12/01 00:48:36;;;;;;;8.25;5.80;;;2.60;78.90;;;;;;5085922;28;20448;-63
2020/12/01 00:51:01;;;;;;;12.30;6.07;;;2.60;78.90;;;;;;5082804;28;20039;-63
2020/12/01 00:53:27;;;;;;;9.13;6.22;;;2.60;79.10;;;;;;5075297;28;20423;-63
2020/12/01 00:55:53;;;;;;;7.90;6.25;;;2.60;78.90;;;;;;5063996;28;20016;-63
2020/12/01 00:58:18;;;;;;;9.25;5.82;;;2.60;79.00;;;;;;5087585;28;20021;-63
2020/12/01 01:00:45;;;;;;;9.73;6.50;;;2.60;78.80;;;;;;5078831;28;20088;-63
2020/12/01 01:03:11;;;;;;;9.27;6.43;;;2.60;79.00;;;;;;5085985;28;20055;-63
2020/12/01 01:05:37;;;;;;;10.35;6.90;;;2.60;79.40;;;;;;5080030;28;20465;-63
2020/12/01 01:08:03;;;;;;;9.85;6.72;;;2.60;79.10;;;;;;5076510;28;20028;-63
2020/12/01 01:10:32;;;;;;;9.57;5.85;;;2.60;79.10;;;;;;5077562;28;20029;-63
2020/12/01 01:12:58;;;;;;;10.70;6.57;;;2.70;79.00;;;;;;5056778;28;20063;-63
2020/12/01 01:15:31;;;;;;;9.10;6.35;;;2.70;79.10;;;;;;5061229;28;20096;-63
2020/12/01 01:17:58;;;;;;;9.23;6.30;;;2.70;79.10;;;;;;5062059;28;20081;-63
2020/12/01 01:20:25;;;;;;;8.88;6.43;;;2.70;79.10;;;;;;5060675;28;20032;-63
2020/12/01 01:22:51;;;;;;;10.73;6.45;;;2.70;79.00;;;;;;5065545;28;20071;-63
2020/12/01 01:25:17;;;;;;;8.70;5.72;;;2.70;79.10;;;;;;5059552;28;20024;-63
2020/12/01 01:27:47;;;;;;;8.75;6.38;;;2.70;78.90;;;;;;5059848;28;20512;-63
2020/12/01 01:30:15;;;;;;;9.13;6.10;;;2.70;79.00;;;;;;5060744;28;20452;-63
2020/12/01 01:32:41;;;;;;;8.77;5.63;;;2.70;79.10;;;;;;5066091;28;20051;-63
2020/12/01 01:35:07;;;;;;;8.18;6.10;;;2.70;79.10;;;;;;5060800;28;20517;-63
2020/12/01 01:37:32;;;;;;;9.93;5.80;;;2.70;79.00;;;;;;5062083;28;20100;-63
2020/12/01 01:39:58;;;;;;;8.50;6.45;;;2.70;79.20;;;;;;5062709;28;20077;-63
2020/12/01 01:42:24;;;;;;;7.47;5.75;;;2.70;79.00;;;;;;5054957;28;20026;-63
2020/12/01 01:44:49;;;;;;;8.45;6.28;;;2.70;79.00;;;;;;5051676;28;20033;-63
2020/12/01 01:47:25;;;;;;;9.75;6.72;;;2.70;79.00;;;;;;5053794;28;20025;-63
2020/12/01 01:50:01;;;;;;;8.02;5.68;;;2.70;79.30;;;;;;5067071;28;20066;-63
2020/12/01 01:52:33;;;;;;;7.60;5.30;;;2.70;79.30;;;;;;5060205;28;20036;-63
2020/12/01 01:55:08;;;;;;;8.50;5.40;;;2.70;79.10;;;;;;5056062;28;20365;-63
2020/12/01 01:57:35;;;;;;;7.53;5.32;;;2.70;79.00;;;;;;5058182;28;20017;-63
2020/12/01 02:00:17;;;;;;;7.97;5.85;;;2.70;79.20;;;;;;5061078;28;20020;-63
2020/12/01 02:02:43;;;;;;;9.35;5.38;;;2.70;79.00;;;;;;5056144;28;20039;-63
2020/12/01 02:05:09;;;;;;;8.23;5.93;;;2.60;79.30;;;;;;5057447;28;20029;-63
2020/12/01 02:07:35;;;;;;;7.70;5.72;;;2.70;79.20;;;;;;5065770;28;20029;-63
2020/12/01 02:10:00;;;;;;;8.35;5.30;;;2.70;79.10;;;;;;5063633;28;20104;-63
2020/12/01 02:12:26;;;;;;;9.43;5.85;;;2.70;79.20;;;;;;5064058;28;20049;-63
2020/12/01 02:14:57;;;;;;;8.18;6.00;;;2.70;79.20;;;;;;5080068;28;20033;-63
2020/12/01 02:17:27;;;;;;;7.63;5.03;;;2.70;79.10;;;;;;5074402;28;20024;-63
2020/12/01 02:20:08;;;;;;;7.28;5.40;;;2.70;79.00;;;;;;5084707;28;20094;-63
2020/12/01 02:22:33;;;;;;;8.13;5.50;;;2.70;79.10;;;;;;5091251;28;20056;-63
2020/12/01 02:24:59;;;;;;;7.53;5.28;;;2.70;78.90;;;;;;5081907;28;20058;-63
2020/12/01 02:27:27;;;;;;;8.15;5.80;;;2.70;79.10;;;;;;5079885;28;20075;-63
2020/12/01 02:29:55;;;;;;;7.38;5.63;;;2.60;79.00;;;;;;5077284;28;20476;-63
2020/12/01 02:32:26;;;;;;;8.48;5.80;;;2.70;78.90;;;;;;5084405;28;20032;-63
2020/12/01 02:34:53;;;;;;;7.18;5.00;;;2.60;79.70;;;;;;5084613;28;20110;-63
2020/12/01 02:37:24;;;;;;;7.13;4.90;;;2.60;78.90;;;;;;5081578;28;20468;-63
2020/12/01 02:39:50;;;;;;;7.35;5.28;;;2.60;79.00;;;;;;5085538;28;20146;-63
2020/12/01 02:42:23;;;;;;;9.73;5.72;;;2.60;79.00;;;;;;5076541;28;20032;-63
2020/12/01 02:44:54;;;;;;;8.40;5.38;;;2.60;78.90;;;;;;5078233;28;20420;-63
2020/12/01 02:47:21;;;;;;;6.68;5.18;;;2.60;78.80;;;;;;5077754;28;20483;-63
2020/12/01 02:49:46;;;;;;;7.25;5.53;;;2.60;78.90;;;;;;5085934;28;20106;-63
2020/12/01 02:52:12;;;;;;;6.93;5.25;;;2.60;79.00;;;;;;5086577;28;20028;-63
2020/12/01 02:54:39;;;;;;;7.22;5.28;;;2.60;78.90;;;;;;5080464;28;20100;-63
2020/12/01 02:57:04;;;;;;;6.63;4.88;;;2.60;79.00;;;;;;5088316;28;20017;-63
2020/12/01 02:59:30;;;;;;;8.07;5.55;;;2.70;79.10;;;;;;5084459;28;20017;-63
2020/12/01 03:01:56;;;;;;;7.95;5.10;;;2.70;79.10;;;;;;5082857;28;20069;-63
2020/12/01 03:04:22;;;;;;;7.75;5.32;;;2.70;78.90;;;;;;5080429;28;20377;-63
2020/12/01 03:06:48;;;;;;;6.50;4.90;;;2.70;78.90;;;;;;5079455;28;20020;-64
2020/12/01 03:09:16;;;;;;;7.43;5.28;;;2.70;78.80;;;;;;5087285;28;20456;-63
2020/12/01 03:11:42;;;;;;;6.97;4.57;;;2.70;78.60;;;;;;5085835;28;20496;-63
2020/12/01 03:14:08;;;;;;;7.03;4.88;;;2.70;78.80;;;;;;5082625;28;20024;-63
2020/12/01 03:16:34;;;;;;;6.85;4.65;;;2.70;78.90;;;;;;5080170;28;20024;-63
2020/12/01 03:18:59;;;;;;;7.38;5.28;;;2.80;78.90;;;;;;5086050;28;20051;-63
2020/12/01 03:21:25;;;;;;;8.10;4.90;;;2.80;78.70;;;;;;5087063;28;20082;-63
2020/12/01 03:23:51;;;;;;;7.53;5.20;;;2.80;78.60;;;;;;5077883;28;20024;-63
2020/12/01 03:26:18;;;;;;;7.57;5.15;;;2.80;78.50;;;;;;5085202;28;20025;-63
2020/12/01 03:28:45;;;;;;;5.78;4.70;;;2.70;78.40;;;;;;5079659;28;20024;-63
2020/12/01 03:31:13;;;;;;;7.65;5.78;;;2.70;78.50;;;;;;5082300;28;20488;-63
2020/12/01 03:33:39;;;;;;;6.63;5.30;;;2.70;78.40;;;;;;5091919;28;20047;-63
2020/12/01 03:36:05;;;;;;;7.88;5.05;;;2.70;78.50;;;;;;5083251;28;20021;-63
2020/12/01 03:38:30;;;;;;;8.13;5.57;;;2.70;78.50;;;;;;5081402;28;20031;-63
2020/12/01 03:40:56;;;;;;;7.05;5.13;;;2.70;78.50;;;;;;5082394;28;20036;-63
2020/12/01 03:43:22;;;;;;;7.53;4.70;;;2.70;78.40;;;;;;5084603;28;20103;-63
2020/12/01 03:45:48;;;;;;;5.82;5.03;;;2.70;78.50;;;;;;5069666;28;20063;-63
2020/12/01 03:48:13;;;;;;;6.55;4.93;;;2.70;78.30;;;;;;5085964;28;20052;-63
2020/12/01 03:50:40;;;;;;;6.57;4.90;;;2.80;78.40;;;;;;5086414;28;20107;-63
2020/12/01 03:53:06;;;;;;;6.85;4.80;;;2.80;78.50;;;;;;5088823;28;20025;-63
2020/12/01 03:55:31;;;;;;;6.90;4.63;;;2.80;78.50;;;;;;5074915;28;20402;-63
2020/12/01 03:57:58;;;;;;;6.47;4.93;;;2.80;78.30;;;;;;5091629;28;20552;-63
2020/12/01 04:00:26;;;;;;;6.70;4.88;;;2.80;78.30;;;;;;5077881;28;20017;-63
2020/12/01 04:02:53;;;;;;;5.97;4.50;;;2.80;78.20;;;;;;5078653;28;20127;-63
2020/12/01 04:05:21;;;;;;;6.78;4.53;;;2.80;78.10;;;;;;5079539;28;20021;-63
2020/12/01 04:07:47;;;;;;;7.78;5.35;;;2.80;78.10;;;;;;5076604;28;20089;-63
2020/12/01 04:10:16;;;;;;;5.78;4.85;;;2.80;78.10;;;;;;5076411;28;20028;-63
2020/12/01 04:12:42;;;;;;;6.25;4.63;;;2.80;78.10;;;;;;5077443;28;20064;-63
2020/12/01 04:15:08;;;;;;;6.30;4.90;;;2.90;78.10;;;;;;5081039;28;20059;-63
2020/12/01 04:17:34;;;;;;;6.47;4.78;;;2.80;78.00;;;;;;5079117;28;20024;-63
2020/12/01 04:20:00;;;;;;;6.05;4.80;;;2.80;78.10;;;;;;5084381;28;20019;-63
2020/12/01 04:22:26;;;;;;;6.88;5.15;;;2.90;78.00;;;;;;5080339;28;20029;-63
2020/12/01 04:24:52;;;;;;;8.45;5.03;;;2.90;77.80;;;;;;5083091;28;20059;-63
2020/12/01 04:27:18;;;;;;;7.63;5.00;;;2.80;77.80;;;;;;5082136;28;20016;-63
2020/12/01 04:29:44;;;;;;;9.02;5.53;;;2.80;77.70;;;;;;5082637;28;20111;-63
2020/12/01 04:32:11;;;;;;;6.35;4.72;;;2.80;78.20;;;;;;5085340;28;20475;-63
2020/12/01 04:34:36;;;;;;;6.45;5.05;;;2.90;78.00;;;;;;5088291;28;20083;-63
2020/12/01 04:37:04;;;;;;;6.82;5.03;;;2.80;77.80;;;;;;5075882;28;20040;-63
2020/12/01 04:39:30;;;;;;;7.32;5.20;;;2.80;77.90;;;;;;5081029;28;20472;-63
2020/12/01 04:41:56;;;;;;;7.05;4.97;;;2.90;78.00;;;;;;5080072;28;20028;-63
2020/12/01 04:44:30;;;;;;;7.40;4.90;;;2.90;78.10;;;;;;5080250;28;20122;-63
2020/12/01 04:46:59;;;;;;;6.97;4.78;;;2.90;77.90;;;;;;5080708;28;20028;-63
2020/12/01 04:49:39;;;;;;;6.47;4.53;;;2.90;78.20;;;;;;5085368;28;20044;-63
2020/12/01 04:52:14;;;;;;;6.78;5.03;;;2.90;78.00;;;;;;5080480;28;20017;-63
2020/12/01 04:54:58;;;;;;;7.43;4.65;;;2.90;78.10;;;;;;5088159;28;20498;-63
2020/12/01 04:57:36;;;;;;;6.22;4.78;;;2.90;78.20;;;;;;5087203;28;20121;-63
2020/12/01 05:00:14;;;;;;;6.72;4.57;;;2.90;78.80;;;;;;5073334;28;20028;-63
2020/12/01 05:03:03;;;;;;;5.95;4.40;;;3.00;78.10;;;;;;5080594;28;20043;-63
2020/12/01 05:08:47;;;;;;;6.68;4.72;;;3.00;77.90;;;;;;5047565;28;20029;-64
2020/12/01 05:11:24;;;;;;;5.40;4.32;;;3.00;78.00;;;;;;5051826;28;20054;-64
2020/12/01 05:14:12;;;;;;;5.95;4.45;;;3.00;78.10;;;;;;5064775;28;20044;-63
2020/12/01 05:17:24;;;;;;;6.05;4.38;;;3.00;77.90;;;;;;5052655;28;20380;-64
2020/12/01 05:19:50;;;;;;;;;;;2.90;77.80;;;;;;5085873;28;20106;-61
2020/12/01 05:22:18;;;;;;;6.03;4.20;;;2.90;78.00;;;;;;5078206;28;19940;-62
2020/12/01 05:24:49;;;;;;;6.60;4.53;;;2.90;78.20;;;;;;5079499;28;20032;-62
2020/12/01 05:27:24;;;;;;;6.80;5.13;;;3.00;78.50;;;;;;5080314;28;20032;-62
2020/12/01 05:29:55;;;;;;;6.65;4.63;;;3.00;78.30;;;;;;5074368;28;20036;-63
2020/12/01 05:32:32;;;;;;;7.10;4.93;;;3.00;78.20;;;;;;5085793;28;20035;-63
2020/12/01 05:35:21;;;;;;;6.22;4.75;;;3.00;78.20;;;;;;5084997;28;20028;-63
2020/12/01 05:37:52;;;;;;;5.05;4.10;;;3.00;78.20;;;;;;5083941;28;20044;-63
2020/12/01 05:40:18;;;;;;;7.22;5.07;;;3.00;77.90;;;;;;5089471;28;20016;-62
2020/12/01 05:42:45;;;;;;;6.32;4.20;;;3.00;78.00;;;;;;5075031;28;20035;-63
2020/12/01 05:45:30;;;;;;;6.35;4.68;;;3.00;78.00;;;;;;5086029;28;20024;-63
2020/12/01 05:48:27;;;;;;;6.30;4.50;;;3.00;78.00;;;;;;5083941;28;20032;-63
2020/12/01 05:51:01;;;;;;;7.50;4.85;;;3.00;77.90;;;;;;5059038;28;20070;-63
2020/12/01 05:53:27;;;;;;;7.22;5.53;;;3.00;78.00;;;;;;5078403;28;20047;-63
2020/12/01 05:56:06;;;;;;;6.88;4.75;;;3.00;78.20;;;;;;5083068;28;20024;-63
2020/12/01 05:58:44;;;;;;;5.43;4.35;;;3.00;77.90;;;;;;5082451;28;20088;-63
2020/12/01 06:01:10;;;;;;;6.45;4.60;;;3.00;78.00;;;;;;5074936;28;20072;-63
2020/12/01 06:03:54;;;;;;;5.97;4.50;;;3.00;78.10;;;;;;5078376;28;20056;-63
2020/12/01 06:06:22;;;;;;;6.70;4.72;;;3.00;78.10;;;;;;5050289;28;20025;-63
2020/12/01 06:08:58;;;;;;;7.18;4.40;;;3.00;78.10;;;;;;5069649;28;20111;-63
2020/12/01 06:11:49;;;;;;;6.13;4.55;;;3.00;78.20;;;;;;5065902;28;20036;-63
2020/12/01 06:14:24;;;;;;;6.00;4.75;;;3.00;78.00;;;;;;5077361;28;20024;-62
2020/12/01 06:17:04;;;;;;;7.97;4.80;;;3.00;78.00;;;;;;5072864;28;20496;-63
2020/12/01 06:20:01;;;;;;;5.18;3.85;;;3.10;78.10;;;;;;5070825;28;20372;-63
2020/12/01 06:22:46;;;;;;;6.18;4.30;;;3.10;78.00;;;;;;5079385;28;20043;-63
2020/12/01 06:25:35;;;;;;;7.28;4.50;;;3.00;78.00;;;;;;5065997;28;20029;-63
2020/12/01 06:28:19;;;;;;;6.65;4.50;;;3.10;78.20;;;;;;5071970;28;20464;-63
2020/12/01 06:31:13;;;;;;;6.43;4.20;;;3.00;78.10;;;;;;5080428;28;20409;-63
2020/12/01 06:33:57;;;;;;;6.07;4.53;;;3.10;78.10;;;;;;5084405;28;20036;-63
2020/12/01 06:36:42;;;;;;;5.28;4.32;;;3.10;78.00;;;;;;5084224;28;20077;-63
2020/12/01 06:39:16;;;;;;;6.15;4.63;;;3.10;78.10;;;;;;5075761;28;20032;-63
2020/12/01 06:42:15;;;;;;;7.35;4.30;;;3.10;78.10;;;;;;5078983;28;20037;-63
2020/12/01 06:44:44;;;;;;;4.75;4.28;;;3.10;78.10;;;;;;5049298;28;20071;-62
2020/12/01 06:47:10;;;;;;;6.72;4.57;;;3.10;78.30;;;;;;5081110;28;20423;-62
2020/12/01 06:49:37;;;;;;;5.28;4.18;;;3.10;78.20;;;;;;5087823;28;20079;-63
2020/12/01 06:52:10;;;;;;;6.38;4.45;;;3.20;78.10;;;;;;5080965;28;20024;-63
2020/12/01 06:54:50;;;;;;;6.35;4.22;;;3.10;78.00;;;;;;5079347;28;20040;-63
2020/12/01 06:57:36;;;;;;;6.07;4.68;;;3.20;78.20;;;;;;5079556;28;20620;-63
2020/12/01 07:00:06;;;;;;;5.93;4.53;;;3.20;78.30;;;;;;5070764;28;20051;-63
2020/12/01 07:02:35;;;;;;;6.07;4.10;;;3.20;78.20;;;;;;5073794;28;20041;-63
2020/12/01 07:05:14;;;;;;;6.13;4.63;;;3.20;78.30;;;;;;5069355;28;20039;-60
2020/12/01 07:07:42;;;;;;;5.97;4.47;;;3.20;78.40;;;;;;5071153;28;20047;-58
2020/12/01 07:10:30;;;;;;;6.95;4.68;;;3.20;78.30;;;;;;5068006;28;20036;-60
2020/12/01 07:13:03;;;;;;;5.90;4.32;;;3.20;78.30;;;;;;5070230;28;20087;-59
2020/12/01 07:15:37;;;;;;;6.65;4.35;;;3.20;78.20;;;;;;5071043;28;20036;-59
2020/12/01 07:18:19;;;;;;;6.68;4.63;;;3.30;78.20;;;;;;5070201;28;20108;-60
2020/12/01 07:21:38;;;;;;;6.30;4.45;;;3.30;78.10;;;;;;5066106;28;20031;-59
2020/12/01 07:24:19;;;;;;;6.25;4.53;;;3.30;78.00;;;;;;5064178;28;20028;-59
2020/12/01 07:26:51;;;;;;;6.55;4.78;;;3.20;78.10;;;;;;5066564;28;20032;-58
2020/12/01 07:29:28;;;;;;;6.78;4.57;;;3.30;78.10;;;;;;5060441;28;20395;-59
2020/12/01 07:32:05;;;;;;;8.50;5.20;;;3.30;78.30;;;;;;5064704;28;20033;-59
2020/12/01 07:34:33;;;;;;;7.43;4.85;;;3.30;78.30;;;;;;5067270;28;20040;-59
2020/12/01 07:37:17;;;;;;;7.22;4.85;;;3.30;78.40;;;;;;5065047;28;20353;-60
2020/12/01 07:39:54;;;;;;;6.55;4.80;;;3.40;78.40;;;;;;5064677;28;20510;-59
2020/12/01 07:42:22;;;;;;;6.65;4.80;;;3.40;78.20;;;;;;5062008;28;20029;-59
2020/12/01 07:44:48;;;;;;;7.32;5.00;;;3.40;78.10;;;;;;5066617;28;20369;-60
2020/12/01 07:47:21;;;;;;;6.97;5.20;;;3.50;78.30;;;;;;5061324;28;20078;-60
2020/12/01 07:50:02;;;;;;;7.43;4.90;;;3.50;78.20;;;;;;5062813;28;20111;-60
2020/12/01 07:52:33;;;;;;;7.10;5.20;;;3.50;78.20;;;;;;5066562;28;20730;-60
2020/12/01 07:55:21;;;;;;;7.00;4.88;;;3.50;78.10;;;;;;5065158;28;20016;-60
2020/12/01 07:58:01;;;;;;;8.65;5.40;;;3.50;78.20;;;;;;5066684;28;20040;-58
2020/12/01 08:00:27;;;;;;;6.80;5.10;;;3.60;78.20;;;;;;5068065;28;20017;-60
2020/12/01 08:03:10;;;;;;;8.05;5.15;;;3.60;77.90;;;;;;5060739;28;20115;-60
2020/12/01 08:05:35;;;;;;;7.35;5.03;;;3.60;77.90;;;;;;5064493;28;20032;-62
2020/12/01 08:08:02;;;;;;;7.22;5.70;;;3.60;77.90;;;;;;5061867;28;20688;-58
2020/12/01 08:10:29;;;;;;;8.77;5.85;;;3.60;78.00;;;;;;5052910;28;20120;-59
2020/12/01 08:13:01;;;;;;;7.60;5.25;;;3.60;78.00;;;;;;5063438;28;20067;-59
2020/12/01 08:15:28;;;;;;;7.03;5.20;;;3.70;78.00;;;;;;5057763;28;20024;-61
2020/12/01 08:17:54;;;;;;;9.32;6.07;;;3.70;78.00;;;;;;5055000;28;20028;-59
2020/12/01 08:20:24;;;;;;;7.22;5.25;;;3.70;77.80;;;;;;5052631;28;20764;-60
2020/12/01 08:23:16;;;;;;;9.23;5.55;;;3.70;77.80;;;;;;5060164;28;20051;-60
2020/12/01 08:26:05;;;;;;;7.28;5.28;;;3.70;77.80;;;;;;5045918;28;20040;-59
2020/12/01 08:28:39;;;;;;;8.20;5.45;;;3.70;77.80;;;;;;5048060;28;20045;-60
2020/12/01 08:31:16;;;;;;;8.80;5.50;;;3.80;77.90;;;;;;5048801;28;20061;-59
2020/12/01 08:34:08;;;;;;;9.20;5.88;;;3.80;77.70;;;;;;5055047;28;20522;-60
2020/12/01 08:37:01;;;;;;;10.63;6.78;;;3.80;77.60;;;;;;5055132;28;20392;-59
2020/12/01 08:40:06;;;;;;;9.00;5.97;;;3.80;77.30;;;;;;5021296;28;20036;-60
2020/12/01 08:42:56;;;;;;;7.85;5.43;;;3.80;77.70;;;;;;5038074;28;20052;-60
2020/12/01 08:45:28;;;;;;;10.27;6.25;;;3.80;77.80;;;;;;5058470;28;20047;-60
2020/12/01 08:48:00;;;;;;;10.25;6.55;;;3.80;77.80;;;;;;5052769;28;20142;-60
2020/12/01 08:50:37;;;;;;;10.52;6.88;;;3.80;77.70;;;;;;5054070;28;20043;-60
2020/12/01 08:53:16;;;;;;;10.95;6.10;;;3.80;77.90;;;;;;5058845;28;20033;-58
2020/12/01 08:55:42;;;;;;;9.30;6.15;;;3.90;77.90;;;;;;5047311;28;20028;-59
2020/12/01 08:58:22;;;;;;;12.65;7.43;;;3.90;77.90;;;;;;5043672;28;20608;-61
2020/12/01 09:01:13;;;;;;;11.43;6.85;;;3.90;77.90;;;;;;5052399;28;20036;-60
2020/12/01 09:03:51;;;;;;;9.18;5.95;;;4.00;77.90;;;;;;5048739;28;20128;-61
2020/12/01 09:06:26;;;;;;;11.30;7.03;;;4.00;77.90;;;;;;5053534;28;20031;-61
2020/12/01 09:09:04;;;;;;;9.32;6.45;;;4.00;77.90;;;;;;5056634;28;20395;-59
2020/12/01 09:22:13;;;;;;;9.98;7.00;;;4.10;77.90;;;;;;5054120;28;20036;-61
2020/12/01 09:24:39;;;;;;;10.80;6.55;;;4.10;77.80;;;;;;5050307;28;20020;-60
2020/12/01 09:27:05;;;;;;;11.68;6.78;;;4.10;77.80;;;;;;5045240;28;20488;-60
2020/12/01 09:29:31;;;;;;;12.32;7.68;;;4.20;77.80;;;;;;5050596;28;20020;-60
2020/12/01 09:31:57;;;;;;;11.43;7.43;;;4.20;77.80;;;;;;5041755;28;20039;-60
2020/12/01 09:34:22;;;;;;;9.63;6.82;;;4.20;77.60;;;;;;5052667;28;20037;-60
2020/12/01 09:36:54;;;;;;;13.88;8.02;;;4.20;77.60;;;;;;5043842;28;20582;-60
2020/12/01 09:39:20;;;;;;;10.70;7.65;;;4.20;77.60;;;;;;5050789;28;20078;-60
2020/12/01 09:41:54;;;;;;;9.68;6.90;;;4.20;77.60;;;;;;5048128;28;20025;-60
2020/12/01 09:44:40;;;;;;;12.05;7.45;;;4.30;77.70;;;;;;5044275;28;20456;-60
2020/12/01 09:47:09;;;;;;;10.57;7.38;;;4.30;77.60;;;;;;5048391;28;20075;-60
2020/12/01 09:49:35;;;;;;;10.80;7.35;;;4.30;77.40;;;;;;5047996;28;20029;-60
2020/12/01 09:52:08;;;;;;;11.95;7.38;;;4.30;77.40;;;;;;5048551;28;20029;-59
2020/12/01 09:54:40;;;;;;;13.43;8.00;;;4.30;77.50;;;;;;5058346;28;20127;-62
2020/12/01 10:36:52;;;;;;;13.50;8.90;;;4.60;77.50;;;;;;5059579;28;20722;-61
2020/12/01 10:39:19;;;;;;;15.40;9.43;;;4.60;77.40;;;;;;5052267;28;20021;-61
2020/12/01 10:41:44;;;;;;;15.35;8.93;;;4.70;77.20;;;;;;5049085;28;20032;-60
2020/12/01 10:44:10;;;;;;;16.10;8.18;;;4.70;77.50;;;;;;5057467;28;20586;-60
2020/12/01 10:46:36;;;;;;;12.68;7.95;;;4.70;77.60;;;;;;5061279;28;20097;-61
2020/12/01 10:49:02;;;;;;;14.82;8.73;;;4.70;77.50;;;;;;5059213;28;20090;-60
2020/12/01 10:51:28;;;;;;;18.83;9.98;;;4.70;77.60;;;;;;5049123;28;20079;-61
2020/12/01 10:53:54;;;;;;;15.57;8.77;;;4.80;77.70;;;;;;5051379;28;20123;-61
2020/12/01 10:56:20;;;;;;;14.07;8.63;;;4.80;77.50;;;;;;5044781;28;20025;-61
2020/12/01 10:58:46;;;;;;;12.82;7.70;;;4.80;77.30;;;;;;5051922;28;20042;-60
2020/12/01 11:01:12;;;;;;;12.98;8.23;;;4.70;77.10;;;;;;5048309;28;20033;-61
2020/12/01 11:03:39;;;;;;;11.55;7.75;;;4.80;77.30;;;;;;5043862;28;20094;-60
2020/12/01 11:06:04;;;;;;;13.35;8.73;;;4.80;77.30;;;;;;5028985;28;20036;-60
2020/12/01 11:08:30;;;;;;;13.30;7.90;;;4.80;77.00;;;;;;5046908;28;20712;-60
2020/12/01 11:10:56;;;;;;;16.20;8.63;;;4.80;77.30;;;;;;5053123;28;20170;-61
2020/12/01 11:13:22;;;;;;;11.80;8.10;;;4.70;77.20;;;;;;5055481;28;20678;-61
2020/12/01 11:15:47;;;;;;;14.30;8.82;;;4.70;76.80;;;;;;5049322;28;20051;-60
2020/12/01 11:18:13;;;;;;;15.05;8.77;;;4.70;77.10;;;;;;5043340;28;20058;-61
2020/12/01 11:20:39;;;;;;;15.77;8.90;;;4.70;77.20;;;;;;5054847;28;20135;-61
2020/12/01 11:23:04;;;;;;;12.45;8.25;;;4.70;77.30;;;;;;5063790;28;20025;-61
2020/12/01 11:25:30;;;;;;;15.73;8.75;;;4.60;77.40;;;;;;5060781;28;20114;-61
2020/12/01 11:27:56;;;;;;;16.88;9.40;;;4.70;77.40;;;;;;5065483;28;20379;-59
2020/12/01 11:30:24;;;;;;;18.17;10.45;;;4.60;77.30;;;;;;5062918;28;20028;-60
2020/12/01 11:32:49;;;;;;;14.80;8.93;;;4.60;77.50;;;;;;5062492;28;20078;-61
2020/12/01 11:35:17;;;;;;;16.17;8.80;;;4.60;77.70;;;;;;5054978;28;20710;-61
2020/12/01 11:37:43;;;;;;;16.02;9.15;;;4.50;77.90;;;;;;5061906;28;20428;-60
2020/12/01 11:40:10;;;;;;;17.15;9.80;;;4.50;77.90;;;;;;5056923;28;20510;-62
2020/12/01 11:42:36;;;;;;;17.45;9.63;;;4.50;77.90;;;;;;5061168;28;20181;-60
2020/12/01 11:45:06;;;;;;;20.17;11.20;;;4.50;78.20;;;;;;5058799;28;20031;-61
2020/12/01 11:47:32;;;;;;;20.83;10.23;;;4.50;78.40;;;;;;5055399;28;20392;-61
2020/12/01 11:49:57;;;;;;;15.95;9.60;;;4.60;78.40;;;;;;5060229;28;20029;-60
2020/12/01 11:52:23;;;;;;;18.40;10.73;;;4.60;78.50;;;;;;5055892;28;20029;-61
2020/12/01 11:54:49;;;;;;;17.50;9.88;;;4.60;78.30;;;;;;5054545;28;20029;-60
2020/12/01 11:57:15;;;;;;;15.65;9.18;;;4.60;78.40;;;;;;5058432;28;20063;-61
2020/12/01 11:59:41;;;;;;;18.92;10.77;;;4.70;78.50;;;;;;5060918;28;20073;-61
2020/12/01 12:02:06;;;;;;;17.23;9.82;;;4.70;78.30;;;;;;5058182;28;20391;-61
2020/12/01 12:04:32;;;;;;;20.05;11.27;;;4.70;78.20;;;;;;5051420;28;20040;-62
2020/12/01 12:06:59;;;;;;;21.48;10.57;;;4.70;78.30;;;;;;5060462;28;20032;-62
2020/12/01 12:09:26;;;;;;;22.60;11.40;;;4.70;78.50;;;;;;5054642;28;20438;-61
2020/12/01 12:11:51;;;;;;;18.63;10.18;;;4.80;78.70;;;;;;5060508;28;20082;-62
2020/12/01 12:14:17;;;;;;;21.52;10.55;;;4.80;78.30;;;;;;5057795;28;20032;-59
2020/12/01 12:16:43;;;;;;;20.00;11.48;;;4.80;78.30;;;;;;5043839;28;20029;-62
2020/12/01 12:19:08;;;;;;;17.73;9.85;;;4.80;78.40;;;;;;5058987;28;20024;-61
2020/12/01 12:21:35;;;;;;;20.30;11.20;;;4.80;78.70;;;;;;5057587;28;20033;-60
2020/12/01 12:24:00;;;;;;;22.95;12.18;;;4.90;78.50;;;;;;5052009;28;20135;-61
2020/12/01 12:26:26;;;;;;;22.00;11.15;;;4.90;78.30;;;;;;5050975;28;20072;-61
2020/12/01 12:28:52;;;;;;;18.88;10.43;;;4.90;78.50;;;;;;5055493;28;20116;-60
2020/12/01 12:31:19;;;;;;;17.38;10.50;;;4.90;78.50;;;;;;5056417;28;20033;-62
2020/12/01 12:33:45;;;;;;;18.50;11.32;;;5.00;78.20;;;;;;5049776;28;20554;-59
2020/12/01 12:36:12;;;;;;;16.15;9.85;;;4.90;78.00;;;;;;5050287;28;20025;-61
2020/12/01 12:38:37;;;;;;;17.60;10.57;;;5.00;78.30;;;;;;5056375;28;20053;-60
2020/12/01 12:41:04;;;;;;;17.70;10.18;;;4.90;78.30;;;;;;5047630;28;20112;-59
2020/12/01 12:43:31;;;;;;;16.80;10.05;;;4.90;78.10;;;;;;5058137;28;20052;-60
2020/12/01 12:45:57;;;;;;;18.35;10.30;;;4.90;78.20;;;;;;5058479;28;20029;-60
2020/12/01 12:48:23;;;;;;;17.17;10.65;;;5.00;78.10;;;;;;5061799;28;20037;-61
2020/12/01 12:50:49;;;;;;;20.95;11.60;;;4.90;78.00;;;;;;5060063;28;20033;-60
2020/12/01 12:53:15;;;;;;;20.05;11.43;;;4.90;78.30;;;;;;5059297;28;20355;-61
2020/12/01 12:55:41;;;;;;;19.58;11.13;;;5.00;78.50;;;;;;5054833;28;20021;-60
2020/12/01 12:58:08;;;;;;;21.70;11.15;;;5.00;78.30;;;;;;5052648;28;20032;-61
2020/12/01 13:00:34;;;;;;;18.67;10.32;;;5.00;78.20;;;;;;5054662;28;20530;-60
2020/12/01 13:03:00;;;;;;;20.45;11.85;;;5.00;78.10;;;;;;5051671;28;20028;-61
2020/12/01 13:05:26;;;;;;;20.25;11.40;;;5.00;78.10;;;;;;5052834;28;20054;-59
2020/12/01 13:07:52;;;;;;;20.42;10.98;;;4.90;78.20;;;;;;5055150;28;20040;-60
2020/12/01 13:10:18;;;;;;;19.60;12.02;;;5.00;78.30;;;;;;5057858;28;20759;-60
2020/12/01 13:12:44;;;;;;;23.20;11.95;;;5.00;78.20;;;;;;5055481;28;20101;-60
2020/12/01 13:15:11;;;;;;;19.55;11.32;;;4.90;78.30;;;;;;5056703;28;20024;-61
2020/12/01 13:17:40;;;;;;;17.73;10.43;;;5.00;78.60;;;;;;5065471;28;20048;-61
2020/12/01 13:20:11;;;;;;;17.50;10.48;;;5.00;78.50;;;;;;5052556;28;20499;-60
2020/12/01 13:22:37;;;;;;;19.90;11.77;;;5.00;78.50;;;;;;5058042;28;20024;-60
2020/12/01 13:25:03;;;;;;;21.50;10.43;;;5.00;78.50;;;;;;5052016;28;20040;-61
2020/12/01 13:27:29;;;;;;;20.60;12.02;;;5.00;78.70;;;;;;5057837;28;20032;-61
2020/12/01 13:29:55;;;;;;;19.02;11.30;;;5.10;78.70;;;;;;5057237;28;20039;-61
2020/12/01 13:32:21;;;;;;;19.58;10.23;;;5.10;78.50;;;;;;5053456;28;20036;-60
2020/12/01 13:34:46;;;;;;;19.27;10.73;;;5.10;78.40;;;;;;5058300;28;20074;-60
2020/12/01 13:37:12;;;;;;;18.63;10.73;;;5.10;78.40;;;;;;5058787;28;20101;-61
2020/12/01 13:39:38;;;;;;;21.48;11.98;;;5.10;78.30;;;;;;5057493;28;20137;-63
2020/12/01 13:42:03;;;;;;;20.50;12.27;;;5.10;78.10;;;;;;5053070;28;20122;-60
2020/12/01 13:44:29;;;;;;;20.58;12.45;;;5.10;78.60;;;;;;5060668;28;20043;-64
2020/12/01 13:46:55;;;;;;;17.70;11.23;;;5.10;78.60;;;;;;5052157;28;20400;-60
2020/12/01 13:49:22;;;;;;;18.73;11.57;;;5.10;78.50;;;;;;5046644;28;20060;-60
2020/12/01 13:51:48;;;;;;;18.17;10.10;;;5.10;78.20;;;;;;5051046;28;20033;-60
2020/12/01 13:54:14;;;;;;;19.58;11.13;;;5.10;77.90;;;;;;5050618;28;20040;-60
2020/12/01 13:56:44;;;;;;;18.50;11.48;;;5.10;78.10;;;;;;5051465;28;20043;-60
2020/12/01 13:59:10;;;;;;;17.55;10.80;;;5.10;78.10;;;;;;5050173;28;20065;-59
2020/12/01 14:01:35;;;;;;;18.17;11.85;;;5.10;78.20;;;;;;5046761;28;20040;-61
2020/12/01 14:04:02;;;;;;;18.88;11.65;;;5.10;78.20;;;;;;5051706;28;20028;-62